sensor_id;sensor_type;location;lat;lon;timestamp;P1;durP1;ratioP1;P2;durP2;ratioP2
59756;SDS011;45631;51.962;5.974;2022-12-18T00:02:01;51.60;;;24.00;;
59756;SDS011;45631;51.962;5.974;2022-12-18T00:04:30;50.63;;;24.70;;
59756;SDS011;45631;51.962;5.974;2022-12-18T00:06:58;47.65;;;24.42;;
59756;SDS011;45631;51.962;5.974;2022-12-18T00:09:26;46.55;;;23.58;;
59756;SDS011;45631;51.962;5.974;2022-12-18T00:12:07;50.58;;;23.48;;
59756;SDS011;45631;51.962;5.974;2022-12-18T00:14:41;51.35;;;25.00;;
59756;SDS011;45631;51.962;5.974;2022-12-18T00:17:09;45.45;;;22.73;;
59756;SDS011;45631;51.962;5.974;2022-12-18T00:19:37;50.70;;;22.38;;
59756;SDS011;45631;51.962;5.974;2022-12-18T00:22:05;46.03;;;22.45;;
59756;SDS011;45631;51.962;5.974;2022-12-18T00:24:33;49.47;;;23.42;;
59756;SDS011;45631;51.962;5.974;2022-12-18T00:27:02;47.28;;;22.92;;
59756;SDS011;45631;51.962;5.974;2022-12-18T00:29:31;48.55;;;22.83;;
59756;SDS011;45631;51.962;5.974;2022-12-18T00:32:00;45.22;;;21.33;;
59756;SDS011;45631;51.962;5.974;2022-12-18T00:34:28;49.17;;;22.75;;
59756;SDS011;45631;51.962;5.974;2022-12-18T00:36:56;47.80;;;21.90;;
59756;SDS011;45631;51.962;5.974;2022-12-18T00:39:24;43.60;;;20.73;;
59756;SDS011;45631;51.962;5.974;2022-12-18T00:41:52;42.75;;;21.38;;
59756;SDS011;45631;51.962;5.974;2022-12-18T00:44:39;51.65;;;23.65;;
59756;SDS011;45631;51.962;5.974;2022-12-18T00:47:08;46.47;;;22.65;;
59756;SDS011;45631;51.962;5.974;2022-12-18T00:49:36;46.38;;;22.13;;
59756;SDS011;45631;51.962;5.974;2022-12-18T00:52:04;46.35;;;22.83;;
59756;SDS011;45631;51.962;5.974;2022-12-18T00:54:32;46.72;;;22.23;;
59756;SDS011;45631;51.962;5.974;2022-12-18T00:57:00;45.10;;;22.45;;
59756;SDS011;45631;51.962;5.974;2022-12-18T00:59:29;45.50;;;21.42;;
59756;SDS011;45631;51.962;5.974;2022-12-18T01:01:58;41.03;;;20.52;;
59756;SDS011;45631;51.962;5.974;2022-12-18T01:04:27;45.60;;;21.23;;
59756;SDS011;45631;51.962;5.974;2022-12-18T01:06:57;43.17;;;21.00;;
59756;SDS011;45631;51.962;5.974;2022-12-18T01:09:26;41.47;;;20.92;;
59756;SDS011;45631;51.962;5.974;2022-12-18T01:11:57;46.23;;;21.50;;
59756;SDS011;45631;51.962;5.974;2022-12-18T01:14:25;42.10;;;21.23;;
59756;SDS011;45631;51.962;5.974;2022-12-18T01:16:53;44.20;;;20.38;;
59756;SDS011;45631;51.962;5.974;2022-12-18T01:19:22;43.35;;;21.25;;
59756;SDS011;45631;51.962;5.974;2022-12-18T01:21:51;39.63;;;19.50;;
59756;SDS011;45631;51.962;5.974;2022-12-18T01:24:19;41.63;;;18.77;;
59756;SDS011;45631;51.962;5.974;2022-12-18T01:26:47;44.15;;;20.88;;
59756;SDS011;45631;51.962;5.974;2022-12-18T01:29:15;40.65;;;19.02;;
59756;SDS011;45631;51.962;5.974;2022-12-18T01:31:43;47.35;;;21.05;;
59756;SDS011;45631;51.962;5.974;2022-12-18T01:34:11;39.10;;;20.33;;
59756;SDS011;45631;51.962;5.974;2022-12-18T01:36:41;45.60;;;20.63;;
59756;SDS011;45631;51.962;5.974;2022-12-18T01:39:10;43.00;;;21.10;;
59756;SDS011;45631;51.962;5.974;2022-12-18T01:41:39;42.60;;;20.10;;
59756;SDS011;45631;51.962;5.974;2022-12-18T01:47:28;47.00;;;21.52;;
59756;SDS011;45631;51.962;5.974;2022-12-18T01:50:01;45.50;;;20.38;;
59756;SDS011;45631;51.962;5.974;2022-12-18T01:52:33;42.60;;;18.80;;
59756;SDS011;45631;51.962;5.974;2022-12-18T01:55:03;42.67;;;18.60;;
59756;SDS011;45631;51.962;5.974;2022-12-18T01:57:34;43.15;;;20.02;;
59756;SDS011;45631;51.962;5.974;2022-12-18T02:00:04;39.65;;;19.45;;
59756;SDS011;45631;51.962;5.974;2022-12-18T02:02:35;43.05;;;19.25;;
59756;SDS011;45631;51.962;5.974;2022-12-18T02:05:03;43.67;;;20.33;;
59756;SDS011;45631;51.962;5.974;2022-12-18T02:07:37;48.97;;;22.02;;
59756;SDS011;45631;51.962;5.974;2022-12-18T02:10:13;47.22;;;19.95;;
59756;SDS011;45631;51.962;5.974;2022-12-18T02:12:48;42.47;;;18.73;;
59756;SDS011;45631;51.962;5.974;2022-12-18T02:15:24;42.95;;;19.73;;
59756;SDS011;45631;51.962;5.974;2022-12-18T02:18:01;43.15;;;19.98;;
59756;SDS011;45631;51.962;5.974;2022-12-18T02:20:34;45.30;;;20.00;;
59756;SDS011;45631;51.962;5.974;2022-12-18T02:23:12;39.33;;;19.20;;
59756;SDS011;45631;51.962;5.974;2022-12-18T02:26:00;38.67;;;18.05;;
59756;SDS011;45631;51.962;5.974;2022-12-18T02:28:36;41.72;;;19.15;;
59756;SDS011;45631;51.962;5.974;2022-12-18T02:31:11;39.58;;;18.95;;
59756;SDS011;45631;51.962;5.974;2022-12-18T02:36:11;37.28;;;18.50;;
59756;SDS011;45631;51.962;5.974;2022-12-18T02:38:42;37.33;;;18.25;;
59756;SDS011;45631;51.962;5.974;2022-12-18T02:41:13;42.58;;;20.38;;
59756;SDS011;45631;51.962;5.974;2022-12-18T02:43:46;38.38;;;17.65;;
59756;SDS011;45631;51.962;5.974;2022-12-18T02:49:06;37.17;;;17.52;;
59756;SDS011;45631;51.962;5.974;2022-12-18T02:51:47;38.65;;;18.45;;
59756;SDS011;45631;51.962;5.974;2022-12-18T02:54:33;37.65;;;17.13;;
59756;SDS011;45631;51.962;5.974;2022-12-18T02:57:13;34.70;;;16.60;;
59756;SDS011;45631;51.962;5.974;2022-12-18T02:59:46;38.88;;;18.58;;
59756;SDS011;45631;51.962;5.974;2022-12-18T03:02:21;34.05;;;17.67;;
59756;SDS011;45631;51.962;5.974;2022-12-18T03:04:55;37.55;;;18.20;;
59756;SDS011;45631;51.962;5.974;2022-12-18T03:07:33;36.83;;;18.40;;
59756;SDS011;45631;51.962;5.974;2022-12-18T03:10:07;33.03;;;16.48;;
59756;SDS011;45631;51.962;5.974;2022-12-18T03:12:41;31.83;;;14.95;;
59756;SDS011;45631;51.962;5.974;2022-12-18T03:15:14;32.55;;;16.10;;
59756;SDS011;45631;51.962;5.974;2022-12-18T03:17:50;31.80;;;15.98;;
59756;SDS011;45631;51.962;5.974;2022-12-18T03:20:25;33.85;;;16.10;;
59756;SDS011;45631;51.962;5.974;2022-12-18T03:22:57;31.90;;;16.00;;
59756;SDS011;45631;51.962;5.974;2022-12-18T03:25:31;32.75;;;16.38;;
59756;SDS011;45631;51.962;5.974;2022-12-18T03:28:03;35.75;;;16.80;;
59756;SDS011;45631;51.962;5.974;2022-12-18T03:30:36;33.97;;;17.67;;
59756;SDS011;45631;51.962;5.974;2022-12-18T03:35:38;32.28;;;16.02;;
59756;SDS011;45631;51.962;5.974;2022-12-18T03:38:09;32.67;;;15.80;;
59756;SDS011;45631;51.962;5.974;2022-12-18T03:40:41;30.83;;;15.13;;
59756;SDS011;45631;51.962;5.974;2022-12-18T03:43:20;29.13;;;13.98;;
59756;SDS011;45631;51.962;5.974;2022-12-18T03:46:00;32.22;;;15.88;;
59756;SDS011;45631;51.962;5.974;2022-12-18T03:48:36;31.58;;;15.48;;
59756;SDS011;45631;51.962;5.974;2022-12-18T03:51:10;35.03;;;16.13;;
59756;SDS011;45631;51.962;5.974;2022-12-18T03:53:43;30.52;;;16.33;;
59756;SDS011;45631;51.962;5.974;2022-12-18T03:56:19;31.42;;;15.07;;
59756;SDS011;45631;51.962;5.974;2022-12-18T03:58:51;31.45;;;16.20;;
59756;SDS011;45631;51.962;5.974;2022-12-18T04:01:22;29.92;;;15.02;;
59756;SDS011;45631;51.962;5.974;2022-12-18T04:03:57;31.20;;;14.63;;
59756;SDS011;45631;51.962;5.974;2022-12-18T04:06:28;30.90;;;15.43;;
59756;SDS011;45631;51.962;5.974;2022-12-18T04:08:57;29.90;;;14.57;;
59756;SDS011;45631;51.962;5.974;2022-12-18T04:11:26;31.27;;;15.15;;
59756;SDS011;45631;51.962;5.974;2022-12-18T04:13:56;33.60;;;14.55;;
59756;SDS011;45631;51.962;5.974;2022-12-18T04:16:25;31.33;;;15.75;;
59756;SDS011;45631;51.962;5.974;2022-12-18T04:18:54;29.98;;;13.93;;
59756;SDS011;45631;51.962;5.974;2022-12-18T04:21:22;30.52;;;14.85;;
59756;SDS011;45631;51.962;5.974;2022-12-18T04:23:50;24.30;;;12.88;;
59756;SDS011;45631;51.962;5.974;2022-12-18T04:26:18;29.20;;;14.68;;
59756;SDS011;45631;51.962;5.974;2022-12-18T04:28:46;30.33;;;14.40;;
59756;SDS011;45631;51.962;5.974;2022-12-18T04:31:16;33.38;;;14.27;;
59756;SDS011;45631;51.962;5.974;2022-12-18T04:33:44;31.83;;;14.60;;
59756;SDS011;45631;51.962;5.974;2022-12-18T04:36:12;31.35;;;13.95;;
59756;SDS011;45631;51.962;5.974;2022-12-18T04:38:40;25.75;;;13.77;;
59756;SDS011;45631;51.962;5.974;2022-12-18T04:41:08;29.45;;;13.55;;
59756;SDS011;45631;51.962;5.974;2022-12-18T04:43:39;26.65;;;13.73;;
59756;SDS011;45631;51.962;5.974;2022-12-18T04:46:07;25.30;;;13.65;;
59756;SDS011;45631;51.962;5.974;2022-12-18T04:48:37;25.27;;;13.70;;
59756;SDS011;45631;51.962;5.974;2022-12-18T04:51:06;29.23;;;12.55;;
59756;SDS011;45631;51.962;5.974;2022-12-18T04:53:34;28.40;;;13.55;;
59756;SDS011;45631;51.962;5.974;2022-12-18T04:56:04;24.70;;;13.30;;
59756;SDS011;45631;51.962;5.974;2022-12-18T04:58:33;29.98;;;13.60;;
59756;SDS011;45631;51.962;5.974;2022-12-18T05:01:02;25.33;;;11.85;;
59756;SDS011;45631;51.962;5.974;2022-12-18T05:03:30;26.85;;;12.38;;
59756;SDS011;45631;51.962;5.974;2022-12-18T05:06:00;27.52;;;12.25;;
59756;SDS011;45631;51.962;5.974;2022-12-18T05:08:29;23.23;;;12.15;;
59756;SDS011;45631;51.962;5.974;2022-12-18T05:10:58;25.77;;;12.57;;
59756;SDS011;45631;51.962;5.974;2022-12-18T05:13:27;25.95;;;12.20;;
59756;SDS011;45631;51.962;5.974;2022-12-18T05:15:55;27.02;;;12.95;;
59756;SDS011;45631;51.962;5.974;2022-12-18T05:18:26;23.65;;;11.45;;
59756;SDS011;45631;51.962;5.974;2022-12-18T05:20:55;25.63;;;12.00;;
59756;SDS011;45631;51.962;5.974;2022-12-18T05:23:25;24.25;;;12.38;;
59756;SDS011;45631;51.962;5.974;2022-12-18T05:25:55;24.45;;;11.00;;
59756;SDS011;45631;51.962;5.974;2022-12-18T05:28:25;20.95;;;11.30;;
59756;SDS011;45631;51.962;5.974;2022-12-18T05:30:56;24.67;;;11.75;;
59756;SDS011;45631;51.962;5.974;2022-12-18T05:33:26;21.65;;;10.85;;
59756;SDS011;45631;51.962;5.974;2022-12-18T05:35:56;22.20;;;11.68;;
59756;SDS011;45631;51.962;5.974;2022-12-18T05:38:27;20.45;;;11.13;;
59756;SDS011;45631;51.962;5.974;2022-12-18T05:40:56;22.50;;;11.87;;
59756;SDS011;45631;51.962;5.974;2022-12-18T05:43:26;24.15;;;12.30;;
59756;SDS011;45631;51.962;5.974;2022-12-18T05:45:55;22.75;;;11.43;;
59756;SDS011;45631;51.962;5.974;2022-12-18T05:48:24;21.85;;;11.60;;
59756;SDS011;45631;51.962;5.974;2022-12-18T05:50:52;23.42;;;11.90;;
59756;SDS011;45631;51.962;5.974;2022-12-18T05:53:20;22.52;;;11.48;;
59756;SDS011;45631;51.962;5.974;2022-12-18T05:55:50;22.40;;;10.98;;
59756;SDS011;45631;51.962;5.974;2022-12-18T05:58:18;21.83;;;11.00;;
59756;SDS011;45631;51.962;5.974;2022-12-18T06:00:46;22.88;;;11.02;;
59756;SDS011;45631;51.962;5.974;2022-12-18T06:03:14;23.60;;;10.48;;
59756;SDS011;45631;51.962;5.974;2022-12-18T06:05:43;20.55;;;10.38;;
59756;SDS011;45631;51.962;5.974;2022-12-18T06:08:12;22.38;;;10.55;;
59756;SDS011;45631;51.962;5.974;2022-12-18T06:10:41;26.38;;;12.38;;
59756;SDS011;45631;51.962;5.974;2022-12-18T06:13:11;24.33;;;10.55;;
59756;SDS011;45631;51.962;5.974;2022-12-18T06:15:39;20.00;;;11.20;;
59756;SDS011;45631;51.962;5.974;2022-12-18T06:18:10;21.55;;;10.82;;
59756;SDS011;45631;51.962;5.974;2022-12-18T06:20:38;21.65;;;10.70;;
59756;SDS011;45631;51.962;5.974;2022-12-18T06:23:07;22.92;;;11.15;;
59756;SDS011;45631;51.962;5.974;2022-12-18T06:25:37;19.95;;;9.77;;
59756;SDS011;45631;51.962;5.974;2022-12-18T06:28:05;21.27;;;10.25;;
59756;SDS011;45631;51.962;5.974;2022-12-18T06:30:35;23.25;;;11.02;;
59756;SDS011;45631;51.962;5.974;2022-12-18T06:33:03;19.85;;;10.82;;
59756;SDS011;45631;51.962;5.974;2022-12-18T06:35:31;20.13;;;9.68;;
59756;SDS011;45631;51.962;5.974;2022-12-18T06:38:00;21.95;;;10.85;;
59756;SDS011;45631;51.962;5.974;2022-12-18T06:40:29;19.13;;;11.05;;
59756;SDS011;45631;51.962;5.974;2022-12-18T06:42:57;21.95;;;10.23;;
59756;SDS011;45631;51.962;5.974;2022-12-18T06:45:25;25.95;;;11.40;;
59756;SDS011;45631;51.962;5.974;2022-12-18T06:47:57;19.63;;;10.52;;
59756;SDS011;45631;51.962;5.974;2022-12-18T06:50:25;21.05;;;11.15;;
59756;SDS011;45631;51.962;5.974;2022-12-18T06:52:54;23.33;;;12.00;;
59756;SDS011;45631;51.962;5.974;2022-12-18T06:55:22;25.42;;;11.00;;
59756;SDS011;45631;51.962;5.974;2022-12-18T06:57:50;21.35;;;10.90;;
59756;SDS011;45631;51.962;5.974;2022-12-18T07:00:18;19.63;;;10.43;;
59756;SDS011;45631;51.962;5.974;2022-12-18T07:02:49;21.40;;;11.40;;
59756;SDS011;45631;51.962;5.974;2022-12-18T07:05:19;21.58;;;11.32;;
59756;SDS011;45631;51.962;5.974;2022-12-18T07:07:47;22.08;;;11.52;;
59756;SDS011;45631;51.962;5.974;2022-12-18T07:10:15;22.63;;;10.98;;
59756;SDS011;45631;51.962;5.974;2022-12-18T07:12:46;23.08;;;11.48;;
59756;SDS011;45631;51.962;5.974;2022-12-18T07:15:14;21.73;;;11.27;;
59756;SDS011;45631;51.962;5.974;2022-12-18T07:17:43;22.15;;;10.85;;
59756;SDS011;45631;51.962;5.974;2022-12-18T07:20:11;20.20;;;10.05;;
59756;SDS011;45631;51.962;5.974;2022-12-18T07:22:42;24.85;;;11.77;;
59756;SDS011;45631;51.962;5.974;2022-12-18T07:25:10;21.08;;;10.55;;
59756;SDS011;45631;51.962;5.974;2022-12-18T07:27:38;23.88;;;11.45;;
59756;SDS011;45631;51.962;5.974;2022-12-18T07:30:08;21.58;;;11.10;;
59756;SDS011;45631;51.962;5.974;2022-12-18T07:32:37;24.30;;;11.27;;
59756;SDS011;45631;51.962;5.974;2022-12-18T07:35:05;19.55;;;11.20;;
59756;SDS011;45631;51.962;5.974;2022-12-18T07:37:34;25.35;;;11.88;;
59756;SDS011;45631;51.962;5.974;2022-12-18T07:40:03;20.75;;;10.73;;
59756;SDS011;45631;51.962;5.974;2022-12-18T07:42:32;21.70;;;11.32;;
59756;SDS011;45631;51.962;5.974;2022-12-18T07:45:01;22.23;;;10.75;;
59756;SDS011;45631;51.962;5.974;2022-12-18T07:47:30;21.38;;;11.57;;
59756;SDS011;45631;51.962;5.974;2022-12-18T07:49:58;19.98;;;9.45;;
59756;SDS011;45631;51.962;5.974;2022-12-18T07:52:26;21.40;;;11.68;;
59756;SDS011;45631;51.962;5.974;2022-12-18T07:54:55;25.83;;;11.77;;
59756;SDS011;45631;51.962;5.974;2022-12-18T07:57:24;21.10;;;10.95;;
59756;SDS011;45631;51.962;5.974;2022-12-18T08:00:13;21.40;;;12.27;;
59756;SDS011;45631;51.962;5.974;2022-12-18T08:02:43;20.67;;;10.60;;
59756;SDS011;45631;51.962;5.974;2022-12-18T08:05:11;20.23;;;11.80;;
59756;SDS011;45631;51.962;5.974;2022-12-18T08:07:39;20.83;;;11.10;;
59756;SDS011;45631;51.962;5.974;2022-12-18T08:10:08;24.83;;;11.85;;
59756;SDS011;45631;51.962;5.974;2022-12-18T08:12:37;23.20;;;10.25;;
59756;SDS011;45631;51.962;5.974;2022-12-18T08:15:06;22.55;;;11.13;;
59756;SDS011;45631;51.962;5.974;2022-12-18T08:17:35;21.67;;;11.73;;
59756;SDS011;45631;51.962;5.974;2022-12-18T08:20:03;19.42;;;10.68;;
59756;SDS011;45631;51.962;5.974;2022-12-18T08:22:33;20.75;;;11.13;;
59756;SDS011;45631;51.962;5.974;2022-12-18T08:25:01;23.52;;;10.75;;
59756;SDS011;45631;51.962;5.974;2022-12-18T08:27:30;21.67;;;10.45;;
59756;SDS011;45631;51.962;5.974;2022-12-18T08:30:00;21.60;;;10.77;;
59756;SDS011;45631;51.962;5.974;2022-12-18T08:32:30;23.10;;;10.30;;
59756;SDS011;45631;51.962;5.974;2022-12-18T08:34:59;22.00;;;10.85;;
59756;SDS011;45631;51.962;5.974;2022-12-18T08:37:27;20.77;;;10.13;;
59756;SDS011;45631;51.962;5.974;2022-12-18T08:39:55;23.00;;;9.82;;
59756;SDS011;45631;51.962;5.974;2022-12-18T08:42:24;20.88;;;10.25;;
59756;SDS011;45631;51.962;5.974;2022-12-18T08:45:11;16.95;;;9.35;;
59756;SDS011;45631;51.962;5.974;2022-12-18T08:47:39;19.55;;;9.00;;
59756;SDS011;45631;51.962;5.974;2022-12-18T08:50:09;18.00;;;8.63;;
59756;SDS011;45631;51.962;5.974;2022-12-18T08:52:38;18.65;;;8.68;;
59756;SDS011;45631;51.962;5.974;2022-12-18T08:55:07;19.48;;;8.63;;
59756;SDS011;45631;51.962;5.974;2022-12-18T08:57:36;18.38;;;8.43;;
59756;SDS011;45631;51.962;5.974;2022-12-18T09:00:05;15.50;;;8.65;;
59756;SDS011;45631;51.962;5.974;2022-12-18T09:02:35;19.15;;;8.50;;
59756;SDS011;45631;51.962;5.974;2022-12-18T09:05:03;19.00;;;8.20;;
59756;SDS011;45631;51.962;5.974;2022-12-18T09:07:32;19.17;;;8.02;;
59756;SDS011;45631;51.962;5.974;2022-12-18T09:10:00;17.88;;;8.05;;
59756;SDS011;45631;51.962;5.974;2022-12-18T09:12:28;18.30;;;9.00;;
59756;SDS011;45631;51.962;5.974;2022-12-18T09:14:56;18.02;;;8.52;;
59756;SDS011;45631;51.962;5.974;2022-12-18T09:17:25;16.85;;;8.98;;
59756;SDS011;45631;51.962;5.974;2022-12-18T09:19:57;18.23;;;8.73;;
59756;SDS011;45631;51.962;5.974;2022-12-18T09:22:25;16.85;;;8.30;;
59756;SDS011;45631;51.962;5.974;2022-12-18T09:24:53;17.13;;;8.27;;
59756;SDS011;45631;51.962;5.974;2022-12-18T09:27:21;16.38;;;7.68;;
59756;SDS011;45631;51.962;5.974;2022-12-18T09:29:50;17.70;;;8.52;;
59756;SDS011;45631;51.962;5.974;2022-12-18T09:32:18;16.02;;;7.82;;
59756;SDS011;45631;51.962;5.974;2022-12-18T09:34:48;18.00;;;8.18;;
59756;SDS011;45631;51.962;5.974;2022-12-18T09:37:17;15.63;;;8.07;;
59756;SDS011;45631;51.962;5.974;2022-12-18T09:39:45;16.23;;;8.38;;
59756;SDS011;45631;51.962;5.974;2022-12-18T09:42:16;16.23;;;8.38;;
59756;SDS011;45631;51.962;5.974;2022-12-18T09:44:49;17.98;;;8.25;;
59756;SDS011;45631;51.962;5.974;2022-12-18T09:47:18;15.50;;;8.15;;
59756;SDS011;45631;51.962;5.974;2022-12-18T09:49:52;17.70;;;8.07;;
59756;SDS011;45631;51.962;5.974;2022-12-18T09:52:26;17.00;;;8.30;;
59756;SDS011;45631;51.962;5.974;2022-12-18T09:54:59;15.75;;;7.57;;
59756;SDS011;45631;51.962;5.974;2022-12-18T09:57:31;19.23;;;8.95;;
59756;SDS011;45631;51.962;5.974;2022-12-18T10:00:03;16.98;;;8.50;;
59756;SDS011;45631;51.962;5.974;2022-12-18T10:02:41;16.05;;;8.20;;
59756;SDS011;45631;51.962;5.974;2022-12-18T10:05:11;21.95;;;10.50;;
59756;SDS011;45631;51.962;5.974;2022-12-18T10:07:49;19.43;;;9.73;;
59756;SDS011;45631;51.962;5.974;2022-12-18T10:10:30;16.05;;;8.50;;
59756;SDS011;45631;51.962;5.974;2022-12-18T10:13:09;16.88;;;8.73;;
59756;SDS011;45631;51.962;5.974;2022-12-18T10:15:52;14.75;;;8.25;;
59756;SDS011;45631;51.962;5.974;2022-12-18T10:18:31;18.13;;;8.95;;
59756;SDS011;45631;51.962;5.974;2022-12-18T10:21:15;17.90;;;10.23;;
59756;SDS011;45631;51.962;5.974;2022-12-18T10:23:49;16.83;;;8.97;;
59756;SDS011;45631;51.962;5.974;2022-12-18T10:26:27;18.90;;;9.60;;
59756;SDS011;45631;51.962;5.974;2022-12-18T10:28:56;17.10;;;9.20;;
59756;SDS011;45631;51.962;5.974;2022-12-18T10:31:31;16.52;;;8.75;;
59756;SDS011;45631;51.962;5.974;2022-12-18T10:33:59;14.57;;;8.90;;
59756;SDS011;45631;51.962;5.974;2022-12-18T10:36:27;18.00;;;8.55;;
59756;SDS011;45631;51.962;5.974;2022-12-18T10:39:00;18.73;;;9.60;;
59756;SDS011;45631;51.962;5.974;2022-12-18T10:41:44;16.52;;;8.60;;
59756;SDS011;45631;51.962;5.974;2022-12-18T10:44:16;16.83;;;8.30;;
59756;SDS011;45631;51.962;5.974;2022-12-18T10:46:45;14.60;;;8.52;;
59756;SDS011;45631;51.962;5.974;2022-12-18T10:49:19;21.75;;;10.57;;
59756;SDS011;45631;51.962;5.974;2022-12-18T10:51:49;19.17;;;9.68;;
59756;SDS011;45631;51.962;5.974;2022-12-18T10:54:21;18.20;;;9.52;;
59756;SDS011;45631;51.962;5.974;2022-12-18T10:56:51;13.32;;;6.90;;
59756;SDS011;45631;51.962;5.974;2022-12-18T10:59:19;18.55;;;8.43;;
59756;SDS011;45631;51.962;5.974;2022-12-18T11:01:48;15.38;;;7.85;;
59756;SDS011;45631;51.962;5.974;2022-12-18T11:04:19;14.52;;;8.10;;
59756;SDS011;45631;51.962;5.974;2022-12-18T11:06:53;14.68;;;7.90;;
59756;SDS011;45631;51.962;5.974;2022-12-18T11:09:25;15.80;;;8.00;;
59756;SDS011;45631;51.962;5.974;2022-12-18T11:11:55;15.55;;;8.73;;
59756;SDS011;45631;51.962;5.974;2022-12-18T11:14:26;16.30;;;8.70;;
59756;SDS011;45631;51.962;5.974;2022-12-18T11:16:57;14.95;;;7.78;;
59756;SDS011;45631;51.962;5.974;2022-12-18T11:19:51;16.55;;;7.75;;
59756;SDS011;45631;51.962;5.974;2022-12-18T11:22:23;15.57;;;8.00;;
59756;SDS011;45631;51.962;5.974;2022-12-18T11:24:56;15.80;;;8.45;;
59756;SDS011;45631;51.962;5.974;2022-12-18T11:27:50;17.98;;;8.45;;
59756;SDS011;45631;51.962;5.974;2022-12-18T11:30:21;18.23;;;8.88;;
59756;SDS011;45631;51.962;5.974;2022-12-18T11:32:52;16.67;;;9.60;;
59756;SDS011;45631;51.962;5.974;2022-12-18T11:35:33;18.70;;;8.80;;
59756;SDS011;45631;51.962;5.974;2022-12-18T11:38:06;15.20;;;7.38;;
59756;SDS011;45631;51.962;5.974;2022-12-18T11:40:47;16.85;;;8.27;;
59756;SDS011;45631;51.962;5.974;2022-12-18T11:43:23;18.30;;;9.32;;
59756;SDS011;45631;51.962;5.974;2022-12-18T11:45:56;16.08;;;8.10;;
59756;SDS011;45631;51.962;5.974;2022-12-18T11:48:30;16.83;;;7.93;;
59756;SDS011;45631;51.962;5.974;2022-12-18T11:51:02;19.13;;;9.40;;
59756;SDS011;45631;51.962;5.974;2022-12-18T11:53:33;15.82;;;8.05;;
59756;SDS011;45631;51.962;5.974;2022-12-18T11:56:11;14.97;;;7.90;;
59756;SDS011;45631;51.962;5.974;2022-12-18T11:58:55;17.15;;;8.77;;
59756;SDS011;45631;51.962;5.974;2022-12-18T12:01:35;15.77;;;7.75;;
59756;SDS011;45631;51.962;5.974;2022-12-18T12:07:16;13.70;;;7.35;;
59756;SDS011;45631;51.962;5.974;2022-12-18T12:09:53;17.05;;;8.68;;
59756;SDS011;45631;51.962;5.974;2022-12-18T12:12:36;14.20;;;7.72;;
59756;SDS011;45631;51.962;5.974;2022-12-18T12:15:17;18.40;;;9.45;;
59756;SDS011;45631;51.962;5.974;2022-12-18T12:17:54;15.05;;;8.23;;
59756;SDS011;45631;51.962;5.974;2022-12-18T12:20:39;17.70;;;8.57;;
59756;SDS011;45631;51.962;5.974;2022-12-18T12:23:20;16.92;;;8.50;;
59756;SDS011;45631;51.962;5.974;2022-12-18T12:25:58;15.70;;;7.25;;
59756;SDS011;45631;51.962;5.974;2022-12-18T12:28:36;16.92;;;7.70;;
59756;SDS011;45631;51.962;5.974;2022-12-18T12:31:28;14.73;;;8.10;;
59756;SDS011;45631;51.962;5.974;2022-12-18T12:34:09;16.00;;;8.10;;
59756;SDS011;45631;51.962;5.974;2022-12-18T12:36:56;16.17;;;8.45;;
59756;SDS011;45631;51.962;5.974;2022-12-18T12:39:35;16.10;;;8.05;;
59756;SDS011;45631;51.962;5.974;2022-12-18T12:42:06;15.77;;;7.95;;
59756;SDS011;45631;51.962;5.974;2022-12-18T12:45:03;15.48;;;7.63;;
59756;SDS011;45631;51.962;5.974;2022-12-18T12:47:37;14.25;;;7.43;;
59756;SDS011;45631;51.962;5.974;2022-12-18T12:50:12;18.95;;;8.73;;
59756;SDS011;45631;51.962;5.974;2022-12-18T12:52:45;15.90;;;8.57;;
59756;SDS011;45631;51.962;5.974;2022-12-18T12:55:16;15.13;;;7.77;;
59756;SDS011;45631;51.962;5.974;2022-12-18T12:57:52;15.55;;;8.23;;
59756;SDS011;45631;51.962;5.974;2022-12-18T13:00:27;14.57;;;8.57;;
59756;SDS011;45631;51.962;5.974;2022-12-18T13:03:06;16.80;;;8.25;;
59756;SDS011;45631;51.962;5.974;2022-12-18T13:05:44;18.35;;;9.32;;
59756;SDS011;45631;51.962;5.974;2022-12-18T13:08:22;20.05;;;9.10;;
59756;SDS011;45631;51.962;5.974;2022-12-18T13:10:52;15.07;;;7.70;;
59756;SDS011;45631;51.962;5.974;2022-12-18T13:13:48;16.67;;;8.40;;
59756;SDS011;45631;51.962;5.974;2022-12-18T13:16:20;16.83;;;8.45;;
59756;SDS011;45631;51.962;5.974;2022-12-18T13:18:49;18.58;;;9.15;;
59756;SDS011;45631;51.962;5.974;2022-12-18T13:21:21;15.32;;;8.05;;
59756;SDS011;45631;51.962;5.974;2022-12-18T13:26:31;14.55;;;7.93;;
59756;SDS011;45631;51.962;5.974;2022-12-18T13:29:00;15.60;;;7.82;;
59756;SDS011;45631;51.962;5.974;2022-12-18T13:34:30;14.82;;;7.22;;
59756;SDS011;45631;51.962;5.974;2022-12-18T13:40:01;17.60;;;8.93;;
59756;SDS011;45631;51.962;5.974;2022-12-18T13:42:39;18.42;;;8.80;;
59756;SDS011;45631;51.962;5.974;2022-12-18T13:45:35;15.65;;;8.13;;
59756;SDS011;45631;51.962;5.974;2022-12-18T13:48:12;16.17;;;8.68;;
59756;SDS011;45631;51.962;5.974;2022-12-18T13:50:48;17.02;;;8.30;;
59756;SDS011;45631;51.962;5.974;2022-12-18T13:53:20;15.93;;;8.80;;
59756;SDS011;45631;51.962;5.974;2022-12-18T13:55:53;18.27;;;8.65;;
59756;SDS011;45631;51.962;5.974;2022-12-18T13:58:22;16.25;;;8.73;;
59756;SDS011;45631;51.962;5.974;2022-12-18T14:00:50;16.85;;;8.27;;
59756;SDS011;45631;51.962;5.974;2022-12-18T14:03:20;14.57;;;7.10;;
59756;SDS011;45631;51.962;5.974;2022-12-18T14:05:55;16.33;;;8.82;;
59756;SDS011;45631;51.962;5.974;2022-12-18T14:08:30;17.65;;;9.68;;
59756;SDS011;45631;51.962;5.974;2022-12-18T14:11:01;18.15;;;9.10;;
59756;SDS011;45631;51.962;5.974;2022-12-18T14:13:33;18.17;;;8.93;;
59756;SDS011;45631;51.962;5.974;2022-12-18T14:18:38;15.88;;;8.40;;
59756;SDS011;45631;51.962;5.974;2022-12-18T14:21:18;19.55;;;10.73;;
59756;SDS011;45631;51.962;5.974;2022-12-18T14:23:49;19.45;;;10.38;;
59756;SDS011;45631;51.962;5.974;2022-12-18T14:26:31;15.40;;;8.85;;
59756;SDS011;45631;51.962;5.974;2022-12-18T14:29:00;18.98;;;10.10;;
59756;SDS011;45631;51.962;5.974;2022-12-18T14:32:03;19.30;;;10.00;;
59756;SDS011;45631;51.962;5.974;2022-12-18T14:34:37;18.35;;;8.98;;
59756;SDS011;45631;51.962;5.974;2022-12-18T14:37:07;20.17;;;9.93;;
59756;SDS011;45631;51.962;5.974;2022-12-18T14:39:37;18.55;;;8.80;;
59756;SDS011;45631;51.962;5.974;2022-12-18T14:42:05;16.92;;;9.00;;
59756;SDS011;45631;51.962;5.974;2022-12-18T14:44:37;17.67;;;8.40;;
59756;SDS011;45631;51.962;5.974;2022-12-18T14:47:25;16.30;;;8.95;;
59756;SDS011;45631;51.962;5.974;2022-12-18T14:49:53;17.58;;;9.15;;
59756;SDS011;45631;51.962;5.974;2022-12-18T14:52:28;20.10;;;10.80;;
59756;SDS011;45631;51.962;5.974;2022-12-18T14:54:59;19.75;;;9.75;;
59756;SDS011;45631;51.962;5.974;2022-12-18T14:57:28;19.38;;;9.60;;
59756;SDS011;45631;51.962;5.974;2022-12-18T15:00:04;19.35;;;9.75;;
59756;SDS011;45631;51.962;5.974;2022-12-18T15:02:34;17.25;;;8.85;;
59756;SDS011;45631;51.962;5.974;2022-12-18T15:05:05;23.60;;;11.75;;
59756;SDS011;45631;51.962;5.974;2022-12-18T15:07:47;21.98;;;10.90;;
59756;SDS011;45631;51.962;5.974;2022-12-18T15:10:17;18.63;;;9.70;;
59756;SDS011;45631;51.962;5.974;2022-12-18T15:12:47;16.25;;;8.75;;
59756;SDS011;45631;51.962;5.974;2022-12-18T15:18:14;19.65;;;10.48;;
59756;SDS011;45631;51.962;5.974;2022-12-18T15:20:46;19.70;;;10.00;;
59756;SDS011;45631;51.962;5.974;2022-12-18T15:23:21;21.27;;;10.73;;